Time;durP1;ratioP1;P1;durP2;ratioP2;P2;SDS_P1;SDS_P2;PMS_P1;PMS_P2;Temp;Humidity;BMP_temperature;BMP_pressure;BME280_temperature;BME280_humidity;BME280_pressure;Samples;Min_cycle;Max_cycle;Signal;HPM_P1;HPM_P2
2024/02/08 00:00:00;;;;;;;58.05;21.92;;;;;;;7.36;100.00;100118.94;4990720;28;20108;-66
2024/02/08 00:02:25;;;;;;;45.80;20.30;;;;;;;7.36;100.00;100113.75;4996370;28;20034;-66
2024/02/08 00:04:51;;;;;;;59.53;24.15;;;;;;;7.36;100.00;100108.56;4992134;28;20041;-66
2024/02/08 00:07:17;;;;;;;48.45;21.63;;;;;;;7.37;100.00;100108.44;5000875;28;20398;-66
2024/02/08 00:09:42;;;;;;;51.40;21.02;;;;;;;7.35;100.00;100102.56;4991061;28;20026;-66
2024/02/08 00:12:08;;;;;;;49.17;22.20;;;;;;;7.35;100.00;100104.34;4994527;28;20165;-65
2024/02/08 00:14:34;;;;;;;45.53;21.38;;;;;;;7.33;100.00;100101.88;4986420;28;20554;-66
2024/02/08 00:17:02;;;;;;;53.17;21.23;;;;;;;7.32;100.00;100103.66;5001609;28;20029;-65
2024/02/08 00:19:28;;;;;;;50.55;21.55;;;;;;;7.30;100.00;100102.13;4997233;28;20405;-64
2024/02/08 00:21:55;;;;;;;52.58;22.35;;;;;;;7.27;100.00;100097.22;4988086;28;20058;-65
2024/02/08 00:24:20;;;;;;;57.15;22.25;;;;;;;7.26;100.00;100090.41;4975067;28;20038;-65
2024/02/08 00:26:46;;;;;;;50.45;22.23;;;;;;;7.25;100.00;100096.53;4993228;28;20104;-65
2024/02/08 00:29:11;;;;;;;49.63;20.73;;;;;;;7.24;100.00;100090.53;5001365;28;20085;-64
2024/02/08 00:31:37;;;;;;;51.83;21.35;;;;;;;7.21;100.00;100098.56;4993744;28;20030;-64
2024/02/08 00:34:02;;;;;;;58.03;24.58;;;;;;;7.21;100.00;100087.38;4992518;28;20041;-65
2024/02/08 00:36:28;;;;;;;61.53;22.95;;;;;;;7.21;100.00;100093.38;4998820;28;20348;-65
2024/02/08 00:38:53;;;;;;;57.08;25.17;;;;;;;7.22;100.00;100101.97;4995955;28;20495;-65
2024/02/08 00:41:23;;;;;;;55.05;22.25;;;;;;;7.22;100.00;100097.63;4993601;28;20037;-65
2024/02/08 00:43:49;;;;;;;62.60;23.58;;;;;;;7.19;100.00;100099.66;4993947;28;20027;-65
2024/02/08 00:46:14;;;;;;;62.38;26.17;;;;;;;7.21;100.00;100089.97;4995914;28;20037;-65
2024/02/08 00:48:43;;;;;;;57.05;25.05;;;;;;;7.22;100.00;100089.84;4999129;28;20129;-64
2024/02/08 00:51:09;;;;;;;66.43;27.67;;;;;;;7.25;100.00;100088.75;4991229;28;20205;-64
2024/02/08 00:53:34;;;;;;;66.93;27.02;;;;;;;7.26;100.00;100086.03;4996407;28;20023;-64
2024/02/08 00:56:00;;;;;;;63.97;25.45;;;;;;;7.26;100.00;100082.63;4994777;28;20124;-65
2024/02/08 00:58:25;;;;;;;70.80;26.83;;;;;;;7.24;100.00;100087.13;4995732;28;20096;-65
2024/02/08 01:00:53;;;;;;;55.95;22.60;;;;;;;7.24;100.00;100082.75;4999450;28;20057;-65
2024/02/08 01:03:19;;;;;;;66.30;24.67;;;;;;;7.21;100.00;100089.97;4997666;28;20117;-64
2024/02/08 01:05:51;;;;;;;58.20;23.63;;;;;;;7.19;100.00;100087.50;5006163;28;20041;-64
2024/02/08 01:08:17;;;;;;;70.55;24.73;;;;;;;7.18;100.00;100091.06;5001943;28;20034;-65
2024/02/08 01:10:43;;;;;;;72.80;28.17;;;;;;;7.23;100.00;100099.25;4997665;28;20103;-64
2024/02/08 01:13:08;;;;;;;65.68;26.80;;;;;;;7.26;100.00;100091.22;4994143;28;20520;-64
2024/02/08 01:15:35;;;;;;;64.82;25.13;;;;;;;7.27;100.00;100097.22;4998575;28;20038;-65
2024/02/08 01:18:03;;;;;;;68.40;27.63;;;;;;;7.28;100.00;100088.50;4989661;28;20042;-65
2024/02/08 01:20:29;;;;;;;64.45;26.00;;;;;;;7.28;100.00;100093.69;4999637;28;20477;-65
2024/02/08 01:22:55;;;;;;;66.88;28.80;;;;;;;7.29;100.00;100082.34;4996092;28;20036;-65
2024/02/08 01:25:20;;;;;;;65.15;27.65;;;;;;;7.33;100.00;100088.91;4993395;28;20125;-64
2024/02/08 01:27:46;;;;;;;76.10;28.40;;;;;;;7.36;100.00;100088.66;4994929;28;20046;-64
2024/02/08 01:30:13;;;;;;;61.72;25.90;;;;;;;7.37;100.00;100087.69;4970949;28;20033;-64
2024/02/08 01:32:42;;;;;;;63.67;26.50;;;;;;;7.37;100.00;100085.09;4978931;28;20335;-64
2024/02/08 01:35:10;;;;;;;72.90;27.02;;;;;;;7.38;100.00;100078.16;4985176;28;20456;-64
2024/02/08 01:37:38;;;;;;;72.28;26.75;;;;;;;7.40;100.00;100077.06;4999182;28;20092;-64
2024/02/08 01:40:12;;;;;;;70.03;27.13;;;;;;;7.38;100.00;100070.38;4988007;28;20034;-64
2024/02/08 01:42:38;;;;;;;73.05;27.58;;;;;;;7.38;100.00;100071.19;4989238;28;20524;-64
2024/02/08 01:45:33;;;;;;;64.35;26.33;;;;;;;7.38;100.00;100063.44;4995004;28;20037;-64
2024/02/08 01:48:10;;;;;;;82.82;27.58;;;;;;;7.38;100.00;100058.25;4973103;28;20405;-65
2024/02/08 01:50:41;;;;;;;74.07;25.55;;;;;;;7.37;100.00;100055.78;4991411;28;20029;-64
2024/02/08 01:53:13;;;;;;;66.65;26.85;;;;;;;7.36;100.00;100054.97;4972812;28;20116;-64
2024/02/08 01:55:39;;;;;;;66.07;25.40;;;;;;;7.37;100.00;100056.59;4988269;28;20397;-64
2024/02/08 01:58:10;;;;;;;63.97;26.02;;;;;;;7.36;100.00;100042.00;4988088;28;20029;-64
2024/02/08 02:00:36;;;;;;;67.68;25.60;;;;;;;7.32;100.00;100044.03;4991005;28;20581;-64
2024/02/08 02:03:04;;;;;;;70.85;27.33;;;;;;;7.31;100.00;100055.34;4986014;28;20496;-65
2024/02/08 02:05:29;;;;;;;70.20;26.00;;;;;;;7.32;100.00;100038.03;4993094;28;20054;-65
2024/02/08 02:07:57;;;;;;;65.22;24.90;;;;;;;7.34;100.00;100030.94;4992633;28;20031;-65
2024/02/08 02:10:29;;;;;;;50.95;22.25;;;;;;;7.32;100.00;100033.69;4982114;28;20077;-64
2024/02/08 02:12:59;;;;;;;59.25;22.73;;;;;;;7.29;100.00;100033.13;5000027;28;20041;-65
2024/02/08 02:15:31;;;;;;;55.80;23.60;;;;;;;7.30;100.00;100029.56;4992431;28;20482;-65
2024/02/08 02:17:59;;;;;;;46.70;19.80;;;;;;;7.30;100.00;100029.56;4997954;28;20040;-65
2024/02/08 02:20:29;;;;;;;59.70;23.98;;;;;;;7.31;100.00;100028.63;4984576;28;20033;-64
2024/02/08 02:23:04;;;;;;;59.22;23.17;;;;;;;7.32;100.00;100030.25;4989180;28;20112;-64
2024/02/08 02:25:34;;;;;;;51.92;21.75;;;;;;;7.32;100.00;100027.66;4995142;28;20446;-65
2024/02/08 02:28:01;;;;;;;53.60;20.75;;;;;;;7.32;100.00;100027.66;4990605;28;20501;-64
2024/02/08 02:30:27;;;;;;;46.72;20.90;;;;;;;7.33;100.00;100018.94;4988449;28;20140;-65
2024/02/08 02:33:00;;;;;;;59.30;23.00;;;;;;;7.34;100.00;100025.78;4994913;28;20538;-65
2024/02/08 02:35:28;;;;;;;56.50;24.10;;;;;;;7.34;100.00;100010.22;4982817;28;20042;-64
2024/02/08 02:37:54;;;;;;;61.67;23.38;;;;;;;7.37;100.00;100009.94;4984686;28;20383;-64
2024/02/08 02:40:23;;;;;;;57.10;23.65;;;;;;;7.36;100.00;100003.13;4986857;28;20033;-64
2024/02/08 02:42:52;;;;;;;54.13;22.70;;;;;;;7.34;100.00;100010.22;4988666;28;20027;-64
2024/02/08 02:45:28;;;;;;;58.63;22.35;;;;;;;7.31;100.00;100008.72;4995408;28;20520;-64
2024/02/08 02:47:55;;;;;;;57.22;24.85;;;;;;;7.32;100.00;100012.94;4991799;28;20050;-65
2024/02/08 02:50:21;;;;;;;52.85;20.95;;;;;;;7.32;100.00;100004.34;4990635;28;20034;-64
2024/02/08 02:52:47;;;;;;;52.10;21.58;;;;;;;7.31;100.00;100010.47;4993212;28;20049;-64
2024/02/08 02:55:13;;;;;;;50.75;19.10;;;;;;;7.29;100.00;100012.38;4995562;28;20029;-65
2024/02/08 02:57:41;;;;;;;57.67;23.40;;;;;;;7.27;100.00;100014.28;4989656;28;20029;-64
2024/02/08 03:00:20;;;;;;;47.17;21.67;;;;;;;7.26;100.00;100004.88;4997463;28;20038;-64
2024/02/08 03:02:57;;;;;;;60.53;25.27;;;;;;;7.26;100.00;100002.28;4981116;28;20042;-64
2024/02/08 03:05:23;;;;;;;52.92;23.48;;;;;;;7.27;100.00;100006.53;4991536;28;20121;-64
2024/02/08 03:07:50;;;;;;;57.03;22.75;;;;;;;7.25;100.00;100001.47;4995369;28;20030;-64
2024/02/08 03:10:21;;;;;;;58.78;25.27;;;;;;;7.22;100.00;100006.91;4995830;28;20041;-64
2024/02/08 03:12:51;;;;;;;51.28;23.05;;;;;;;7.24;100.00;100007.59;4984171;28;20042;-64
2024/02/08 03:15:19;;;;;;;54.40;23.13;;;;;;;7.25;100.00;100003.25;4994732;28;20038;-64
2024/02/08 03:17:45;;;;;;;55.30;23.55;;;;;;;7.27;100.00;100006.53;4983466;28;20022;-64
2024/02/08 03:20:17;;;;;;;53.85;21.23;;;;;;;7.29;100.00;100009.81;4987041;28;20037;-65
2024/02/08 03:22:45;;;;;;;52.60;23.05;;;;;;;7.29;100.00;100009.81;4991763;28;20033;-65
2024/02/08 03:25:14;;;;;;;56.67;22.77;;;;;;;7.30;100.00;100008.84;4994729;28;20023;-64
2024/02/08 03:27:43;;;;;;;53.42;21.17;;;;;;;7.29;100.00;100012.38;4995553;28;20030;-64
2024/02/08 03:30:30;;;;;;;62.47;23.17;;;;;;;7.28;100.00;100006.38;4987932;28;20031;-64
2024/02/08 03:32:57;;;;;;;52.35;22.08;;;;;;;7.27;100.00;100007.34;4983496;28;20067;-64
2024/02/08 03:35:36;;;;;;;55.00;21.75;;;;;;;7.26;100.00;100010.06;4985756;28;20038;-65
2024/02/08 03:38:01;;;;;;;52.47;21.70;;;;;;;7.26;100.00;100012.66;4990811;28;20570;-64
2024/02/08 03:40:32;;;;;;;50.53;21.95;;;;;;;7.27;100.00;100016.88;4988909;28;20055;-65
2024/02/08 03:43:00;;;;;;;58.10;21.08;;;;;;;7.27;100.00;100014.28;4987272;28;20050;-65
2024/02/08 03:45:28;;;;;;;45.38;20.00;;;;;;;7.27;100.00;100009.94;4987508;28;20046;-65
2024/02/08 03:47:59;;;;;;;54.75;23.50;;;;;;;7.25;100.00;100017.03;4992779;28;20062;-64
2024/02/08 03:50:37;;;;;;;55.95;23.00;;;;;;;7.25;100.00;100021.38;4991684;28;20038;-64
2024/02/08 03:53:12;;;;;;;52.25;22.52;;;;;;;7.26;100.00;100020.44;4993769;28;20034;-65
2024/02/08 03:55:44;;;;;;;46.72;20.83;;;;;;;7.27;100.00;100019.47;4991270;28;20027;-64
2024/02/08 03:58:13;;;;;;;50.15;22.63;;;;;;;7.26;100.00;100021.25;4989075;28;20030;-64
2024/02/08 04:00:42;;;;;;;54.42;22.40;;;;;;;7.25;100.00;100031.75;4997555;28;20136;-64
2024/02/08 04:03:13;;;;;;;55.22;22.63;;;;;;;7.23;100.00;100021.50;4987146;28;20041;-64
2024/02/08 04:05:59;;;;;;;55.28;22.85;;;;;;;7.22;100.00;100019.06;4987402;28;20117;-64
2024/02/08 04:54:35;;;;;;;45.35;19.30;;;;;;;7.05;100.00;100030.91;4998408;28;20156;-64
2024/02/08 04:57:01;;;;;;;51.17;23.13;;;;;;;7.04;100.00;100028.44;4999552;28;20034;-64
2024/02/08 04:59:26;;;;;;;51.08;21.85;;;;;;;7.04;100.00;100033.63;4998329;28;20049;-64
2024/02/08 05:01:53;;;;;;;49.20;20.73;;;;;;;7.03;100.00;100021.63;4990238;28;20054;-65
2024/02/08 05:04:20;;;;;;;45.47;20.90;;;;;;;7.04;100.00;100023.25;4994462;28;20035;-64
2024/02/08 05:06:47;;;;;;;44.97;20.15;;;;;;;7.04;100.00;100029.28;4992028;28;20072;-65
2024/02/08 05:09:15;;;;;;;49.78;20.95;;;;;;;7.03;100.00;100026.81;4985491;28;20491;-64
2024/02/08 05:11:43;;;;;;;52.80;22.83;;;;;;;7.02;100.00;100031.16;4991844;28;20042;-64
2024/02/08 05:14:09;;;;;;;59.92;22.90;;;;;;;7.02;100.00;100030.34;4994180;28;20034;-64
2024/02/08 05:16:37;;;;;;;46.47;20.67;;;;;;;7.01;100.00;100034.72;4994165;28;20030;-64
2024/02/08 05:19:09;;;;;;;51.67;20.67;;;;;;;7.02;100.00;100032.94;4991293;28;20125;-64
2024/02/08 05:21:40;;;;;;;51.72;21.92;;;;;;;6.98;100.00;100030.59;4994034;28;20479;-64
2024/02/08 05:24:07;;;;;;;53.83;21.48;;;;;;;6.99;100.00;100027.06;4986118;28;20038;-64
2024/02/08 05:26:32;;;;;;;52.63;21.10;;;;;;;6.97;100.00;100025.56;4991789;28;20030;-64
2024/02/08 05:28:58;;;;;;;53.15;21.90;;;;;;;6.96;100.00;100036.88;4992285;28;20022;-64
2024/02/08 05:31:27;;;;;;;52.13;21.85;;;;;;;6.98;100.00;100035.78;4992877;28;20030;-64
2024/02/08 05:33:56;;;;;;;51.22;21.58;;;;;;;6.98;100.00;100030.59;4998220;28;20436;-64
2024/02/08 05:36:23;;;;;;;55.40;21.48;;;;;;;6.98;100.00;100040.16;4981803;28;20034;-65
2024/02/08 05:38:52;;;;;;;48.53;20.98;;;;;;;6.99;100.00;100052.16;4990355;28;20043;-64
2024/02/08 05:41:18;;;;;;;52.45;22.80;;;;;;;7.00;100.00;100046.03;4974070;28;20034;-64
2024/02/08 05:43:47;;;;;;;52.83;20.95;;;;;;;7.02;100.00;100049.31;4994905;28;20477;-64
2024/02/08 05:46:27;;;;;;;58.80;24.73;;;;;;;7.01;100.00;100052.03;4982583;28;20030;-65
2024/02/08 05:49:04;;;;;;;51.60;22.10;;;;;;;7.02;100.00;100046.72;4996992;28;20168;-65
2024/02/08 05:51:30;;;;;;;59.60;22.95;;;;;;;7.02;100.00;100049.31;4988580;28;20030;-65
2024/02/08 05:53:55;;;;;;;60.80;22.88;;;;;;;7.03;100.00;100050.13;4992021;28;20121;-65
2024/02/08 05:56:21;;;;;;;60.22;23.17;;;;;;;7.05;100.00;100056.00;4991608;28;20141;-65
2024/02/08 05:58:51;;;;;;;50.85;21.52;;;;;;;7.05;100.00;100056.81;4991195;28;20119;-65
2024/02/08 06:01:20;;;;;;;57.42;22.75;;;;;;;7.06;100.00;100063.63;4975918;28;20182;-65
2024/02/08 06:03:46;;;;;;;55.83;22.60;;;;;;;7.06;100.00;100065.41;5008600;28;20112;-64
2024/02/08 06:06:25;;;;;;;53.78;22.08;;;;;;;7.06;100.00;100062.81;4997439;28;20108;-64
2024/02/08 06:08:57;;;;;;;52.58;23.35;;;;;;;7.11;100.00;100074.38;5006520;28;20040;-65
2024/02/08 06:11:27;;;;;;;42.65;19.73;;;;;;;7.09;100.00;100078.88;5004177;28;20045;-65
2024/02/08 06:13:58;;;;;;;50.97;21.02;;;;;;;7.12;100.00;100078.63;5000128;28;20033;-64
2024/02/08 06:16:27;;;;;;;41.92;19.33;;;;;;;7.13;100.00;100079.44;5004121;28;20036;-65
2024/02/08 06:19:02;;;;;;;48.00;21.23;;;;;;;7.12;100.00;100078.63;4999165;28;20041;-65
2024/02/08 06:21:40;;;;;;;46.70;18.73;;;;;;;7.14;100.00;100081.06;4997036;28;20085;-64
2024/02/08 06:26:55;;;;;;;41.88;18.33;;;;;;;7.15;100.00;100083.53;4994007;28;20069;-64
2024/02/08 06:29:26;;;;;;;38.30;17.65;;;;;;;7.15;100.00;100088.72;4998766;28;20042;-64
2024/02/08 06:32:02;;;;;;;41.55;17.17;;;;;;;7.15;100.00;100088.72;5004350;28;20398;-64
2024/02/08 06:34:42;;;;;;;;;;;;;;;7.11;100.00;100079.56;5002235;28;20410;-65
2024/02/08 06:37:28;;;;;;;41.47;16.88;;;;;;;7.13;100.00;100085.44;4991638;28;20053;-65
2024/02/08 06:39:57;;;;;;;;;;;;;;;7.11;100.00;100086.53;4995178;28;20501;-64
2024/02/08 06:42:40;;;;;;;38.78;16.33;;;;;;;7.13;100.00;100090.63;5002391;28;19914;-65
2024/02/08 06:45:44;;;;;;;39.90;16.95;;;;;;;7.16;100.00;100095.53;4992527;28;20084;-65
2024/02/08 07:37:17;;;;;;;39.60;16.05;;;;;;;7.21;100.00;100113.28;4985829;28;20057;-65
2024/02/08 07:37:38;;;;;;;54.85;20.70;;;;;;;7.26;100.00;100144.81;4987968;28;20151;-65
2024/02/08 07:42:52;;;;;;;52.25;21.77;;;;;;;7.26;100.00;100137.84;4980615;28;20038;-65
2024/02/08 07:45:26;;;;;;;58.00;22.10;;;;;;;7.29;100.00;100145.38;4984769;28;20038;-65
2024/02/08 07:47:58;;;;;;;56.97;22.38;;;;;;;7.38;100.00;100155.91;5002646;28;20046;-65
2024/02/08 07:50:35;;;;;;;54.72;22.52;;;;;;;7.44;100.00;100152.78;4994070;28;20068;-65
2024/02/08 07:53:08;;;;;;;52.90;21.08;;;;;;;7.49;100.00;100154.03;4997150;28;20035;-66
2024/02/08 07:58:07;;;;;;;49.95;20.58;;;;;;;7.55;100.00;100153.50;4993436;28;20038;-64
2024/02/08 08:03:10;;;;;;;51.58;21.35;;;;;;;7.60;100.00;100151.31;4997038;28;20050;-64
2024/02/08 08:05:41;;;;;;;56.30;21.73;;;;;;;7.65;100.00;100149.16;5001904;28;20045;-64
2024/02/08 08:08:28;;;;;;;46.17;20.90;;;;;;;7.66;100.00;100148.19;4997973;28;20129;-64
2024/02/08 08:11:15;;;;;;;55.70;20.25;;;;;;;7.72;100.00;100149.44;5003826;28;20390;-64
2024/02/08 08:14:06;;;;;;;50.05;22.45;;;;;;;7.78;100.00;100148.09;4992152;28;20061;-64
2024/02/08 08:19:07;;;;;;;52.58;20.83;;;;;;;7.89;100.00;100140.19;4995303;28;20034;-64
2024/02/08 08:21:58;;;;;;;50.97;20.90;;;;;;;7.97;100.00;100140.34;5001375;28;20087;-64
2024/02/08 08:24:25;;;;;;;50.80;21.42;;;;;;;8.02;100.00;100151.13;5001230;28;20054;-64
2024/02/08 08:29:43;;;;;;;50.97;21.40;;;;;;;8.11;100.00;100150.28;4990178;28;20038;-64
2024/02/08 08:37:48;;;;;;;51.65;23.10;;;;;;;8.02;100.00;100161.50;4993243;28;20468;-64
2024/02/08 08:40:23;;;;;;;58.00;23.42;;;;;;;8.03;100.00;100163.16;4998446;28;20034;-64
2024/02/08 08:42:50;;;;;;;54.50;22.88;;;;;;;8.11;100.00;100165.84;4997125;28;20056;-65
2024/02/08 08:45:19;;;;;;;53.03;24.55;;;;;;;8.21;100.00;100164.09;5002455;28;20042;-65
2024/02/08 08:47:45;;;;;;;58.35;23.42;;;;;;;8.26;100.00;100169.69;5002173;28;20034;-64
2024/02/08 08:50:19;;;;;;;53.13;24.13;;;;;;;8.30;100.00;100165.06;5001812;28;20446;-64
2024/02/08 08:52:49;;;;;;;56.60;24.60;;;;;;;8.40;100.00;100172.88;5007451;28;20153;-64
2024/02/08 08:55:18;;;;;;;55.38;23.58;;;;;;;8.49;100.00;100174.66;5006755;28;20029;-64
2024/02/08 08:58:00;;;;;;;66.10;25.10;;;;;;;8.53;100.00;100170.78;5003511;28;20132;-64
2024/02/08 09:00:37;;;;;;;59.83;23.77;;;;;;;8.57;100.00;100166.97;4995113;28;20423;-64
2024/02/08 09:03:10;;;;;;;67.30;27.20;;;;;;;8.67;100.00;100166.94;4997454;28;20046;-64
2024/02/08 09:05:36;;;;;;;51.35;23.52;;;;;;;8.70;100.00;100162.28;5001880;28;20797;-64
2024/02/08 09:08:21;;;;;;;57.50;25.10;;;;;;;8.74;100.00;100158.47;4995340;28;20027;-65
2024/02/08 09:10:49;;;;;;;60.23;25.03;;;;;;;8.74;100.00;100165.44;4994787;28;20041;-64
2024/02/08 09:13:18;;;;;;;62.03;25.48;;;;;;;8.67;100.00;100170.38;4999117;28;20637;-64
2024/02/08 09:15:48;;;;;;;61.35;25.80;;;;;;;8.61;100.00;100170.91;4998815;28;20035;-64
2024/02/08 09:18:16;;;;;;;58.38;25.77;;;;;;;8.60;100.00;100171.88;4996214;28;20486;-64
2024/02/08 09:20:44;;;;;;;57.83;26.40;;;;;;;8.58;100.00;100177.22;5001881;28;20037;-64
2024/02/08 09:23:13;;;;;;;62.13;24.20;;;;;;;8.63;100.00;100176.78;5004581;28;20037;-64
2024/02/08 09:25:45;;;;;;;62.38;26.02;;;;;;;8.60;100.00;100182.25;4987084;28;20093;-64
2024/02/08 09:28:23;;;;;;;60.47;25.08;;;;;;;8.54;100.00;100186.22;5004347;28;20646;-64
2024/02/08 09:30:57;;;;;;;53.38;23.15;;;;;;;8.59;100.00;100193.59;5001574;28;20038;-64
2024/02/08 09:33:44;;;;;;;61.03;25.25;;;;;;;8.55;100.00;100190.47;5000200;28;20025;-65
2024/02/08 09:36:14;;;;;;;58.35;24.88;;;;;;;8.63;100.00;100197.56;4985947;28;20063;-64
2024/02/08 09:38:43;;;;;;;67.55;26.58;;;;;;;8.72;100.00;100201.94;4991239;28;20042;-65
2024/02/08 09:41:15;;;;;;;67.88;27.00;;;;;;;8.74;100.00;100205.22;4988249;28;20535;-64
2024/02/08 09:43:45;;;;;;;66.35;27.02;;;;;;;8.84;100.00;100205.22;4992941;28;20061;-64
2024/02/08 09:47:04;;;;;;;64.03;25.92;;;;;;;8.92;100.00;100203.56;5000448;28;20042;-64
2024/02/08 09:49:11;;;;;;;63.03;26.05;;;;;;;8.90;100.00;100199.47;4983627;28;20474;-64
2024/02/08 09:51:40;;;;;;;58.47;26.48;;;;;;;8.83;100.00;100199.19;4994404;28;20145;-64
2024/02/08 09:54:15;;;;;;;60.42;28.02;;;;;;;8.86;100.00;100192.91;5000948;28;20037;-65
2024/02/08 09:56:51;;;;;;;55.33;27.17;;;;;;;8.89;100.00;100192.63;4998286;28;20023;-65
2024/02/08 10:00:10;;;;;;;67.97;27.38;;;;;;;8.89;100.00;100197.81;5000967;28;20042;-65
2024/02/08 10:02:32;;;;;;;58.40;26.40;;;;;;;8.90;100.00;100205.47;4983968;28;20191;-65
2024/02/08 10:05:29;;;;;;;65.72;28.27;;;;;;;8.95;100.00;100207.66;5000816;28;20041;-65
2024/02/08 10:08:08;;;;;;;;;;;;;;;9.00;100.00;100210.63;4999337;28;20393;-65
2024/02/08 10:10:44;;;;;;;59.75;26.35;;;;;;;9.04;100.00;100206.78;4974558;28;20289;-65
2024/02/08 10:13:26;;;;;;;63.60;25.58;;;;;;;9.03;100.00;100206.91;4996544;28;20101;-65
2024/02/08 10:15:55;;;;;;;71.20;27.23;;;;;;;8.96;100.00;100197.13;4999901;28;20044;-65
2024/02/08 10:18:37;;;;;;;67.32;26.45;;;;;;;8.98;100.00;100197.75;4992669;28;20038;-65
2024/02/08 10:21:17;;;;;;;65.05;25.10;;;;;;;8.98;100.00;100204.75;4991735;28;20034;-65
2024/02/08 10:23:59;;;;;;;63.95;26.75;;;;;;;8.92;100.00;100208.75;4991917;28;20038;-66
2024/02/08 10:26:27;;;;;;;64.00;26.58;;;;;;;8.90;100.00;100210.66;5001134;28;20034;-65
2024/02/08 10:28:55;;;;;;;70.32;27.52;;;;;;;8.88;100.00;100202.19;4992411;28;20057;-65
2024/02/08 10:31:26;;;;;;;66.88;26.55;;;;;;;8.81;100.00;100203.72;4997545;28;20029;-65
2024/02/08 10:34:23;;;;;;;56.25;25.83;;;;;;;8.83;100.00;100203.56;4996189;28;20046;-65
2024/02/08 10:36:44;;;;;;;61.08;26.48;;;;;;;8.81;100.00;100203.72;5001855;28;20050;-65
2024/02/08 10:39:26;;;;;;;61.17;25.17;;;;;;;8.81;100.00;100195.91;4994974;28;20177;-65
2024/02/08 10:41:58;;;;;;;56.22;25.30;;;;;;;8.83;100.00;100191.41;4994908;28;20026;-65
2024/02/08 10:44:29;;;;;;;68.80;26.70;;;;;;;8.82;100.00;100191.53;4996988;28;20441;-65
2024/02/08 10:47:06;;;;;;;68.65;28.58;;;;;;;8.83;100.00;100194.00;4993031;28;20062;-65
2024/02/08 10:49:41;;;;;;;57.65;24.85;;;;;;;8.84;100.00;100194.81;4999682;28;20454;-65
2024/02/08 10:52:12;;;;;;;65.53;28.05;;;;;;;8.95;100.00;100189.47;4993619;28;20473;-65
2024/02/08 10:54:42;;;;;;;63.58;29.50;;;;;;;8.93;100.00;100184.41;4996889;28;20034;-64
2024/02/08 10:57:33;;;;;;;72.07;28.63;;;;;;;8.86;100.00;100180.72;4990260;28;20022;-64
2024/02/08 10:59:58;;;;;;;66.13;27.88;;;;;;;8.83;100.00;100186.19;4989843;28;20379;-64
2024/02/08 11:02:32;;;;;;;60.22;26.58;;;;;;;8.81;100.00;100182.09;4992879;28;20454;-63
2024/02/08 11:05:21;;;;;;;75.68;28.58;;;;;;;8.78;100.00;100191.00;4987627;28;20090;-65
2024/02/08 11:07:53;;;;;;;78.50;30.50;;;;;;;8.81;100.00;100188.13;4997539;28;20034;-65
2024/02/08 11:10:31;;;;;;;76.78;29.00;;;;;;;8.79;100.00;100187.44;4996884;28;20043;-64
2024/02/08 11:13:01;;;;;;;68.10;29.23;;;;;;;8.80;100.00;100177.88;4996915;28;20038;-64
2024/02/08 11:15:38;;;;;;;77.28;30.00;;;;;;;8.78;100.00;100180.59;4997176;28;20033;-64
2024/02/08 11:18:05;;;;;;;81.47;30.63;;;;;;;8.79;100.00;100182.25;4995100;28;20026;-64
2024/02/08 11:20:38;;;;;;;73.13;31.08;;;;;;;8.81;100.00;100179.50;4999632;28;20387;-64
2024/02/08 11:23:23;;;;;;;68.47;29.73;;;;;;;8.79;100.00;100181.41;4998306;28;20026;-64
2024/02/08 11:25:52;;;;;;;84.95;30.70;;;;;;;8.80;100.00;100181.28;4999029;28;20037;-64
2024/02/08 11:28:20;;;;;;;82.07;30.52;;;;;;;8.78;100.00;100185.78;4986699;28;20034;-64
2024/02/08 11:30:46;;;;;;;87.43;34.63;;;;;;;8.76;100.00;100187.72;4993065;28;20042;-64
2024/02/08 11:33:13;;;;;;;76.28;29.38;;;;;;;8.77;100.00;100189.34;4984189;28;20463;-65
2024/02/08 11:35:54;;;;;;;71.90;31.15;;;;;;;8.78;100.00;100188.41;4984786;28;20049;-64
2024/02/08 11:38:34;;;;;;;73.15;29.20;;;;;;;8.76;100.00;100179.91;4983175;28;20043;-64
2024/02/08 11:41:09;;;;;;;80.10;30.98;;;;;;;8.72;100.00;100191.53;4981227;28;20038;-64
2024/02/08 11:43:36;;;;;;;73.88;29.80;;;;;;;8.70;100.00;100184.84;4989126;28;20346;-64
2024/02/08 11:46:04;;;;;;;72.85;30.55;;;;;;;8.72;100.00;100181.16;4983195;28;20034;-64
2024/02/08 11:48:33;;;;;;;74.60;30.02;;;;;;;8.75;100.00;100180.88;4988094;28;20378;-63
2024/02/08 11:51:10;;;;;;;76.38;29.17;;;;;;;8.73;100.00;100187.16;4981769;28;20030;-64
2024/02/08 11:53:37;;;;;;;68.15;28.35;;;;;;;8.73;100.00;100190.59;4998413;28;20176;-64
2024/02/08 11:56:07;;;;;;;71.93;28.80;;;;;;;8.72;100.00;100191.53;4989901;28;20041;-64
2024/02/08 11:58:41;;;;;;;79.07;30.38;;;;;;;8.72;100.00;100191.53;4988558;28;20073;-64
2024/02/08 12:01:10;;;;;;;73.65;28.77;;;;;;;8.73;100.00;100174.19;4994881;28;20030;-64
2024/02/08 12:03:41;;;;;;;71.72;30.30;;;;;;;8.74;100.00;100168.84;4989767;28;20485;-64
2024/02/08 12:06:07;;;;;;;74.65;31.17;;;;;;;8.75;100.00;100174.88;5004674;28;20034;-64
2024/02/08 12:08:34;;;;;;;91.82;32.65;;;;;;;8.74;100.00;100174.03;4993035;28;20044;-64
2024/02/08 12:11:01;;;;;;;81.70;29.52;;;;;;;8.73;100.00;100176.78;4974908;28;20034;-64
2024/02/08 12:13:32;;;;;;;83.97;31.92;;;;;;;8.74;100.00;100187.03;4983529;28;20055;-64
2024/02/08 12:15:58;;;;;;;85.65;33.88;;;;;;;8.75;100.00;100175.69;4985365;28;20061;-64
2024/02/08 12:18:26;;;;;;;87.70;32.83;;;;;;;8.77;100.00;100175.53;4984939;28;20069;-64
2024/02/08 12:20:56;;;;;;;78.80;32.45;;;;;;;8.78;100.00;100169.41;4983450;28;20042;-64
2024/02/08 12:23:30;;;;;;;88.07;34.30;;;;;;;8.76;100.00;100169.53;4976494;28;20513;-65
2024/02/08 12:25:58;;;;;;;87.13;35.10;;;;;;;8.78;100.00;100159.81;4982915;28;20472;-64
2024/02/08 12:28:24;;;;;;;90.50;35.45;;;;;;;8.79;100.00;100164.06;4990852;28;20347;-65
2024/02/08 12:30:59;;;;;;;88.30;34.72;;;;;;;8.76;100.00;100164.34;4985253;28;20041;-64
2024/02/08 12:33:33;;;;;;;95.05;35.60;;;;;;;8.76;100.00;100155.72;4992270;28;20037;-64
2024/02/08 12:35:59;;;;;;;80.68;32.17;;;;;;;8.76;100.00;100148.75;4977321;28;20039;-65
2024/02/08 12:38:27;;;;;;;95.82;35.88;;;;;;;8.76;100.00;100148.75;4983568;28;20042;-64
2024/02/08 12:40:55;;;;;;;87.22;35.42;;;;;;;8.76;100.00;100135.75;4982920;28;20041;-64
2024/02/08 12:43:21;;;;;;;99.22;36.88;;;;;;;8.73;100.00;100138.63;4979009;28;20042;-64
2024/02/08 12:45:56;;;;;;;94.47;36.70;;;;;;;8.72;100.00;100138.78;4985326;28;20034;-64
2024/02/08 12:48:22;;;;;;;84.55;34.00;;;;;;;8.74;100.00;100132.50;4990431;28;20030;-65
2024/02/08 12:51:03;;;;;;;85.05;34.08;;;;;;;8.75;100.00;100118.53;4986537;28;20025;-64
2024/02/08 12:53:31;;;;;;;92.50;35.40;;;;;;;8.79;100.00;100119.91;4977321;28;20043;-65
2024/02/08 12:56:09;;;;;;;97.82;35.42;;;;;;;8.80;100.00;100120.72;4978826;28;20030;-64
2024/02/08 12:58:35;;;;;;;99.15;36.75;;;;;;;8.81;100.00;100122.34;4980595;28;20031;-64
2024/02/08 13:01:04;;;;;;;103.35;37.17;;;;;;;8.83;100.00;100123.84;4980003;28;20081;-64
2024/02/08 13:03:34;;;;;;;101.90;39.47;;;;;;;8.86;100.00;100122.75;4979573;28;20081;-65
2024/02/08 13:06:04;;;;;;;99.05;38.10;;;;;;;8.83;100.00;100121.25;4981634;28;20493;-64
2024/02/08 13:08:33;;;;;;;90.32;37.83;;;;;;;8.81;100.00;100112.78;4982530;28;20515;-65
2024/02/08 13:11:00;;;;;;;108.03;42.08;;;;;;;8.78;100.00;100110.47;4980868;28;20025;-65
2024/02/08 13:13:26;;;;;;;110.80;38.90;;;;;;;8.77;100.00;100110.59;4995238;28;20058;-65
2024/02/08 13:16:04;;;;;;;104.68;37.75;;;;;;;8.80;100.00;100107.72;4966188;28;20096;-65
2024/02/08 13:18:30;;;;;;;98.72;36.53;;;;;;;8.81;100.00;100115.38;4986813;28;20031;-65
2024/02/08 13:21:00;;;;;;;96.65;39.78;;;;;;;8.80;100.00;100111.16;4985343;28;20048;-65